ADDS - METARS form results

Aviation Digital Data Service (ADDS)

Output produced by METARs form (0558 UTC 25 January 2020)
found at http://aviationweather.gov/metar/data/
 
METAR text: KVYS 250535Z AUTO 26008KT 2 1/2SM -SN OVC003 00/00 A2982 RMK AO2 T10011003
Conditions at: KVYS (PERU , IL, US) observed 0535 UTC 25 January 2020
Temperature: -0.1°C (32°F)
Dewpoint: -0.3°C (31°F) [RH = 99%]
Pressure (altimeter): 29.82 inches Hg (1009.9 mb)
Winds: from the W (260 degrees) at 9 MPH (8 knots; 4.1 m/s)
Visibility: 2.50 miles (4.02 km)
Ceiling: 300 feet AGL
Clouds: overcast cloud deck at 300 feet AGL
Weather: -SN  (light snow)

METAR text: KVYS 250515Z AUTO 27008KT 2 1/2SM -SN OVC003 00/00 A2982 RMK AO2 T00001002
Conditions at: KVYS (PERU , IL, US) observed 0515 UTC 25 January 2020
Temperature: 0.0°C (32°F)
Dewpoint: -0.2°C (32°F) [RH = 99%]
Pressure (altimeter): 29.82 inches Hg (1009.9 mb)
Winds: from the W (270 degrees) at 9 MPH (8 knots; 4.1 m/s)
Visibility: 2.50 miles (4.02 km)
Ceiling: 300 feet AGL
Clouds: overcast cloud deck at 300 feet AGL
Weather: -SN  (light snow)